Time,TemperatureF,DewpointF,PressureIn,WindDirection,WindDirectionDegrees,WindSpeedMPH,WindSpeedGustMPH,Humidity,HourlyPrecipIn,Conditions,Clouds,dailyrainin,SoftwareType,DateUTC
2013-11-15 08:22:00,36.0,33.0,29.84,WSW,255,2.0,6.0,90,-99.99,,,-99.99,,2013-11-15 13:22:00,
2013-11-15 09:22:00,37.0,34.0,29.84,WNW,285,3.0,5.0,90,-99.99,,,-99.99,,2013-11-15 14:22:00,
2013-11-15 10:22:00,40.0,35.0,29.86,West,260,1.0,4.0,82,-99.99,,,-99.99,,2013-11-15 15:22:00,
2013-11-15 11:13:00,40.0,34.0,29.86,SSW,205,4.0,11.0,80,-99.99,,,-99.99,,2013-11-15 16:13:00,
2013-11-15 11:23:00,41.0,35.0,29.86,SSW,210,8.0,11.0,79,-99.99,,,-99.99,,2013-11-15 16:23:00,
2013-11-15 11:43:00,41.0,35.0,29.86,SSW,210,9.0,13.0,79,-99.99,,,-99.99,,2013-11-15 16:43:00,
2013-11-15 12:22:00,44.0,38.0,29.86,SSW,210,5.0,10.0,78,-99.99,,,-99.99,,2013-11-15 17:22:00,
2013-11-15 13:12:00,44.0,38.0,29.86,SSW,205,3.0,6.0,78,-99.99,,,-99.99,,2013-11-15 18:12:00,
2013-11-15 13:42:00,45.0,39.0,29.87,SSW,195,2.0,6.0,81,-99.99,,,-99.99,,2013-11-15 18:42:00,
2013-11-15 13:52:00,45.0,39.0,29.87,SSW,210,2.0,5.0,78,-99.99,,,-99.99,,2013-11-15 18:52:00,
2013-11-15 14:02:00,45.0,39.0,29.87,SSW,210,2.0,5.0,78,-99.99,,,-99.99,,2013-11-15 19:02:00,
2013-11-15 14:12:00,45.0,39.0,29.87,SSW,210,2.0,5.0,78,-99.99,,,-99.99,,2013-11-15 19:12:00,
2013-11-15 15:22:00,45.0,40.0,29.87,SW,225,2.0,6.0,82,-99.99,,,-99.99,,2013-11-15 20:22:00,
2013-11-15 15:42:00,44.0,39.0,29.87,SW,235,2.0,4.0,83,-99.99,,,-99.99,,2013-11-15 20:42:00,
2013-11-15 16:22:00,43.0,38.0,29.86,SW,215,5.0,10.0,84,-99.99,,,-99.99,,2013-11-15 21:22:00,
2013-11-15 18:22:00,39.0,37.0,29.87,SSW,195,10.0,12.0,94,-99.99,,,-99.99,,2013-11-15 23:22:00,
2013-11-15 19:22:00,38.0,37.0,29.89,SSW,200,9.0,10.0,95,-99.99,,,-99.99,,2013-11-16 00:22:00,
2013-11-15 19:42:00,38.0,37.0,29.89,SSW,205,9.0,11.0,95,-99.99,,,-99.99,,2013-11-16 00:42:00,
2013-11-15 20:22:00,37.0,36.0,29.89,SSW,200,10.0,13.0,97,-99.99,,,-99.99,,2013-11-16 01:22:00,
2013-11-15 20:42:00,37.0,36.0,29.89,SSW,205,9.0,13.0,97,-99.99,,,-99.99,,2013-11-16 01:42:00,
2013-11-15 21:22:00,36.0,35.0,29.89,SSW,205,8.0,10.0,96,-99.99,,,-99.99,,2013-11-16 02:22:00,
2013-11-15 22:22:00,36.0,35.0,29.92,SSW,205,9.0,12.0,98,-99.99,,,-99.99,,2013-11-16 03:22:00,
2013-11-15 23:24:00,36.0,35.0,29.92,SSW,200,9.0,11.0,98,-99.99,,,-99.99,,2013-11-16 04:24:00,